createdAt,value
2023-04-28T00:01:12.301Z,12.25
2023-04-28T00:03:39.277Z,9.00
2023-04-28T00:06:06.001Z,7.65
2023-04-28T00:08:33.053Z,7.50
2023-04-28T00:11:00.205Z,9.05
2023-04-28T00:13:26.989Z,8.77
2023-04-28T00:15:53.812Z,9.07
2023-04-28T00:18:21.601Z,7.03
2023-04-28T00:20:48.413Z,9.60
2023-04-28T00:23:15.737Z,7.00
2023-04-28T00:25:42.200Z,7.43
2023-04-28T00:28:08.728Z,6.85
2023-04-28T00:30:35.297Z,7.03
2023-04-28T00:33:01.830Z,6.22
2023-04-28T00:35:28.257Z,10.68
2023-04-28T00:37:55.398Z,6.50
2023-04-28T00:40:22.125Z,7.28
2023-04-28T00:42:48.593Z,8.57
2023-04-28T00:45:15.144Z,9.10
2023-04-28T00:47:42.380Z,8.18
2023-04-28T00:50:10.533Z,8.32
2023-04-28T00:52:38.620Z,8.55
2023-04-28T00:55:07.459Z,5.13
2023-04-28T00:57:34.132Z,5.88
2023-04-28T01:00:01.039Z,7.20
2023-04-28T01:02:30.078Z,7.90
2023-04-28T01:04:57.274Z,7.68
2023-04-28T01:07:24.470Z,5.30
2023-04-28T01:09:51.653Z,7.22
2023-04-28T01:12:23.238Z,5.47
2023-04-28T01:14:52.416Z,6.95
2023-04-28T01:17:19.098Z,6.57
2023-04-28T01:19:45.844Z,6.28
2023-04-28T01:22:15.327Z,6.05
2023-04-28T01:24:42.996Z,7.18
2023-04-28T01:27:11.329Z,6.05
2023-04-28T01:29:39.872Z,6.57
2023-04-28T01:32:06.376Z,6.53
2023-04-28T01:34:33.893Z,6.45
2023-04-28T01:37:00.359Z,6.63
2023-04-28T01:39:27.058Z,8.68
2023-04-28T01:41:53.499Z,4.85
2023-04-28T01:44:20.000Z,7.75
2023-04-28T01:46:48.428Z,5.35
2023-04-28T01:49:15.151Z,4.38
2023-04-28T01:51:42.753Z,7.22
2023-04-28T01:54:09.692Z,5.97
2023-04-28T01:56:36.580Z,5.10
2023-04-28T01:59:03.541Z,6.43
2023-04-28T02:01:30.726Z,7.28
2023-04-28T02:03:57.404Z,5.15
2023-04-28T02:06:24.101Z,4.97
2023-04-28T02:08:50.821Z,7.28
2023-04-28T02:11:17.257Z,7.97
2023-04-28T02:13:43.682Z,6.55
2023-04-28T02:16:10.240Z,5.88
2023-04-28T02:18:36.707Z,5.88
2023-04-28T02:21:13.142Z,6.53
2023-04-28T02:23:40.656Z,4.65
2023-04-28T02:26:07.388Z,5.65
2023-04-28T02:28:33.891Z,7.00
2023-04-28T02:31:05.345Z,5.10
2023-04-28T02:33:32.390Z,7.85
2023-04-28T02:36:00.478Z,5.35
2023-04-28T02:38:27.478Z,4.55
2023-04-28T02:41:05.052Z,5.72
2023-04-28T02:43:32.686Z,5.63
2023-04-28T02:45:59.350Z,6.70
2023-04-28T02:48:26.405Z,6.10
2023-04-28T02:50:53.452Z,7.68
2023-04-28T02:53:20.851Z,5.07
2023-04-28T02:55:47.842Z,6.82
2023-04-28T02:58:14.419Z,7.28
2023-04-28T03:00:41.210Z,5.35
2023-04-28T03:03:07.822Z,5.63
2023-04-28T03:05:34.656Z,6.78
2023-04-28T03:08:01.254Z,8.60
2023-04-28T03:10:28.460Z,7.32
2023-04-28T03:12:55.070Z,5.60
2023-04-28T03:15:21.534Z,5.55
2023-04-28T03:17:48.228Z,6.13
2023-04-28T03:20:15.170Z,6.43
2023-04-28T03:22:42.336Z,6.88
2023-04-28T03:25:09.043Z,6.88
2023-04-28T03:27:44.477Z,5.53
2023-04-28T03:30:11.610Z,5.78
2023-04-28T03:32:38.132Z,8.80
2023-04-28T03:35:05.059Z,6.40
2023-04-28T03:37:31.642Z,6.45
2023-04-28T03:39:58.337Z,5.28
2023-04-28T03:42:25.096Z,5.10
2023-04-28T03:45:05.580Z,5.28
2023-04-28T03:47:32.334Z,4.15
2023-04-28T03:49:58.954Z,4.57
2023-04-28T03:52:26.247Z,6.72
2023-04-28T03:54:52.801Z,6.78
2023-04-28T03:57:19.959Z,5.45
2023-04-28T03:59:46.561Z,6.85
2023-04-28T04:02:13.031Z,4.82
2023-04-28T04:04:39.687Z,5.93
2023-04-28T04:07:06.433Z,5.80
2023-04-28T04:09:32.939Z,5.63
2023-04-28T04:12:01.078Z,5.22
2023-04-28T04:14:27.590Z,4.72
2023-04-28T04:16:55.421Z,6.82
2023-04-28T04:19:23.970Z,8.13
2023-04-28T04:21:53.550Z,4.47
2023-04-28T04:24:20.010Z,8.13
2023-04-28T04:26:46.438Z,4.15
2023-04-28T04:29:31.609Z,5.70
2023-04-28T04:31:59.825Z,5.00
2023-04-28T04:34:26.338Z,12.30
2023-04-28T04:36:52.822Z,5.72
2023-04-28T04:39:19.688Z,4.15
2023-04-28T04:41:47.470Z,6.07
2023-04-28T04:44:34.163Z,4.35
2023-04-28T04:47:00.941Z,8.02
2023-04-28T04:49:27.500Z,4.72
2023-04-28T04:51:54.253Z,7.00
2023-04-28T04:54:20.783Z,7.55
2023-04-28T04:56:47.570Z,8.48
2023-04-28T04:59:20.110Z,6.50
2023-04-28T05:01:58.558Z,6.95
2023-04-28T05:04:25.279Z,4.90
2023-04-28T05:06:52.687Z,7.40
2023-04-28T05:09:19.322Z,5.30
2023-04-28T05:11:46.071Z,5.63
2023-04-28T05:14:12.505Z,6.93
2023-04-28T05:16:42.325Z,5.75
2023-04-28T05:19:11.586Z,5.32
2023-04-28T05:21:38.063Z,5.18
2023-04-28T05:24:05.497Z,8.85
2023-04-28T05:26:31.956Z,4.55
2023-04-28T05:29:03.805Z,6.70
2023-04-28T05:31:30.497Z,6.30
2023-04-28T05:33:58.809Z,7.13
2023-04-28T05:36:25.696Z,5.45
2023-04-28T05:38:52.269Z,8.00
2023-04-28T05:41:19.364Z,9.32
2023-04-28T05:43:46.418Z,7.18
2023-04-28T05:46:28.301Z,7.00
2023-04-28T05:48:57.059Z,4.45
2023-04-28T05:51:23.668Z,6.65
2023-04-28T05:53:51.181Z,4.40
2023-04-28T05:56:17.837Z,5.53
2023-04-28T05:58:44.959Z,5.53
2023-04-28T06:01:11.873Z,14.77
2023-04-28T06:03:41.129Z,5.00
2023-04-28T06:06:10.160Z,5.47
2023-04-28T06:08:37.865Z,4.88
2023-04-28T06:11:05.442Z,4.65
2023-04-28T06:13:31.937Z,5.53
2023-04-28T06:15:58.544Z,5.05
2023-04-28T06:18:25.704Z,4.40
2023-04-28T06:20:52.181Z,7.05
2023-04-28T06:23:19.871Z,4.03
2023-04-28T06:25:47.753Z,4.90
2023-04-28T06:28:15.011Z,4.78
2023-04-28T06:30:42.006Z,4.22
2023-04-28T06:33:08.987Z,6.95
2023-04-28T06:35:36.513Z,5.07
2023-04-28T06:38:04.597Z,5.70
2023-04-28T06:40:31.654Z,4.63
2023-04-28T06:42:59.945Z,6.22
2023-04-28T06:45:40.170Z,4.65
2023-04-28T06:48:07.922Z,6.18
2023-04-28T06:50:37.896Z,4.25
2023-04-28T06:53:07.475Z,4.20
2023-04-28T06:55:34.948Z,5.20
2023-04-28T06:58:01.510Z,5.22
2023-04-28T07:00:28.029Z,5.07
2023-04-28T07:02:54.604Z,5.25
2023-04-28T07:05:21.187Z,4.25
2023-04-28T07:07:47.694Z,5.30
2023-04-28T07:10:15.580Z,6.07
2023-04-28T07:12:42.315Z,4.72
2023-04-28T07:15:10.181Z,4.60
2023-04-28T07:17:37.082Z,5.13
2023-04-28T07:20:05.151Z,5.53
2023-04-28T07:22:31.670Z,5.38
2023-04-28T07:24:58.078Z,5.88
2023-04-28T07:27:24.608Z,5.35
2023-04-28T07:29:51.225Z,5.60
2023-04-28T07:32:17.988Z,5.63
2023-04-28T07:34:44.573Z,4.78
2023-04-28T07:37:12.008Z,4.90
2023-04-28T07:39:40.339Z,4.78
2023-04-28T07:42:06.801Z,6.97
2023-04-28T07:44:33.898Z,4.53
2023-04-28T07:47:01.078Z,8.13
2023-04-28T07:49:31.297Z,5.72
2023-04-28T07:51:57.908Z,8.05
2023-04-28T07:54:25.066Z,6.60
2023-04-28T07:56:51.636Z,6.15
2023-04-28T07:59:18.145Z,6.75
2023-04-28T08:01:44.578Z,7.55
2023-04-28T08:04:11.814Z,8.00
2023-04-28T08:06:39.982Z,6.72
2023-04-28T08:09:06.507Z,6.72
2023-04-28T08:11:33.456Z,7.40
2023-04-28T08:14:02.809Z,7.03
2023-04-28T08:16:30.882Z,7.10
2023-04-28T08:18:57.963Z,5.22
2023-04-28T08:21:24.606Z,4.53
2023-04-28T08:23:51.177Z,4.25
2023-04-28T08:26:17.944Z,4.30
2023-04-28T08:28:44.624Z,5.25
2023-04-28T08:31:11.094Z,4.18
2023-04-28T08:33:37.592Z,3.92
2023-04-28T08:36:04.980Z,3.05
2023-04-28T08:38:31.630Z,3.15
2023-04-28T08:40:58.030Z,2.65
2023-04-28T08:43:25.418Z,3.50
2023-04-28T08:45:51.954Z,7.25
2023-04-28T08:48:20.507Z,5.57
2023-04-28T08:50:52.523Z,4.80
2023-04-28T08:53:25.780Z,4.38
2023-04-28T08:55:56.924Z,4.32
2023-04-28T08:58:27.518Z,4.55
2023-04-28T09:00:54.532Z,4.45
2023-04-28T09:03:21.575Z,4.07
2023-04-28T09:05:48.953Z,3.90
2023-04-28T09:08:15.624Z,4.15
2023-04-28T09:10:42.216Z,4.53
2023-04-28T09:13:08.952Z,4.28
2023-04-28T09:15:37.538Z,4.00
2023-04-28T09:18:06.190Z,5.45
2023-04-28T09:20:34.474Z,4.88
2023-04-28T09:23:13.955Z,5.93
2023-04-28T09:25:40.539Z,4.15
2023-04-28T09:28:21.958Z,4.20
2023-04-28T09:30:48.607Z,4.05
2023-04-28T09:33:16.028Z,5.20
2023-04-28T09:35:45.186Z,3.35
2023-04-28T09:38:12.831Z,3.50
2023-04-28T09:40:55.640Z,4.47
2023-04-28T09:43:35.363Z,3.53
2023-04-28T09:46:04.383Z,4.53
2023-04-28T09:48:36.128Z,3.95
2023-04-28T09:51:05.871Z,3.92
2023-04-28T09:53:33.360Z,3.92
2023-04-28T09:56:02.428Z,2.45
2023-04-28T09:58:29.664Z,0.47
2023-04-28T10:00:58.149Z,1.13
2023-04-28T10:03:29.364Z,1.42
2023-04-28T10:05:58.185Z,0.80
2023-04-28T10:08:25.761Z,2.08
2023-04-28T10:10:56.768Z,1.52
2023-04-28T10:13:24.338Z,0.55
2023-04-28T10:15:51.448Z,0.32
2023-04-28T10:18:18.448Z,1.25
2023-04-28T10:20:50.026Z,0.77
2023-04-28T10:25:59.608Z,0.50
2023-04-28T10:28:29.107Z,0.65
2023-04-28T10:31:18.224Z,0.40
2023-04-28T10:33:45.053Z,0.68
2023-04-28T10:36:11.694Z,1.27
2023-04-28T10:39:08.232Z,0.50
2023-04-28T10:41:34.806Z,1.45
2023-04-28T10:44:01.445Z,1.20
2023-04-28T10:46:28.055Z,1.73
2023-04-28T10:48:55.193Z,0.82
2023-04-28T10:51:22.695Z,0.50
2023-04-28T10:53:50.234Z,0.95
2023-04-28T10:56:21.354Z,1.58
2023-04-28T10:58:55.286Z,0.50
2023-04-28T11:01:21.960Z,2.35
2023-04-28T11:03:49.330Z,0.80
2023-04-28T11:06:23.838Z,0.60
2023-04-28T11:08:50.294Z,1.30
2023-04-28T11:11:19.464Z,1.00
2023-04-28T11:13:49.096Z,0.80
2023-04-28T11:16:21.686Z,0.73
2023-04-28T11:18:56.664Z,1.10
2023-04-28T11:21:24.600Z,0.70
2023-04-28T11:23:51.239Z,1.13
2023-04-28T11:26:19.335Z,0.90
2023-04-28T11:28:54.290Z,1.05
2023-04-28T11:31:24.762Z,1.63
2023-04-28T11:34:18.712Z,1.15
2023-04-28T11:36:45.424Z,0.60
2023-04-28T11:39:13.342Z,1.80
2023-04-28T11:41:41.691Z,1.00
2023-04-28T11:44:15.374Z,1.50
2023-04-28T11:47:02.773Z,0.93
2023-04-28T11:49:41.435Z,0.93
2023-04-28T11:52:09.226Z,0.63
2023-04-28T11:54:36.925Z,1.38
2023-04-28T11:57:05.134Z,0.65
2023-04-28T11:59:35.914Z,0.73
2023-04-28T12:02:04.997Z,2.17
2023-04-28T12:04:39.513Z,1.15
2023-04-28T12:07:10.557Z,1.70
2023-04-28T12:09:39.603Z,0.50
2023-04-28T12:12:08.639Z,0.82
2023-04-28T12:14:54.721Z,0.75
2023-04-28T12:17:29.353Z,1.50
2023-04-28T12:19:56.760Z,1.50
2023-04-28T12:22:24.430Z,1.25
2023-04-28T12:25:11.424Z,2.13
2023-04-28T12:27:40.307Z,1.25
2023-04-28T12:30:19.599Z,0.80
2023-04-28T12:32:46.511Z,1.40
2023-04-28T12:35:13.018Z,1.42
2023-04-28T12:37:40.020Z,1.23
2023-04-28T12:40:07.425Z,2.40
2023-04-28T12:42:34.521Z,1.63
2023-04-28T12:45:01.376Z,0.80
2023-04-28T12:47:27.961Z,2.60
2023-04-28T12:49:54.420Z,1.92
2023-04-28T12:52:21.266Z,0.90
2023-04-28T12:54:47.754Z,1.25
2023-04-28T12:57:18.672Z,1.10
2023-04-28T12:59:47.222Z,1.15
2023-04-28T13:02:15.311Z,1.80
2023-04-28T13:04:48.404Z,1.75
2023-04-28T13:07:15.711Z,1.30
2023-04-28T13:09:44.463Z,1.80
2023-04-28T13:12:11.830Z,2.20
2023-04-28T13:14:38.280Z,2.47
2023-04-28T13:17:04.883Z,1.00
2023-04-28T13:19:32.688Z,1.33
2023-04-28T13:21:59.159Z,1.75
2023-04-28T13:24:26.307Z,0.55
2023-04-28T13:26:53.002Z,1.52
2023-04-28T13:29:19.527Z,2.05
2023-04-28T13:31:46.443Z,0.40
2023-04-28T13:34:16.264Z,1.38
2023-04-28T13:36:44.178Z,1.70
2023-04-28T13:39:11.665Z,2.13
2023-04-28T13:41:38.165Z,1.95
2023-04-28T13:44:04.623Z,1.75
2023-04-28T13:46:31.288Z,1.33
2023-04-28T13:48:58.491Z,0.90
2023-04-28T13:51:24.962Z,3.35
2023-04-28T13:53:51.435Z,0.45
2023-04-28T13:56:17.892Z,0.45
2023-04-28T13:58:44.311Z,1.13
2023-04-28T14:01:10.799Z,0.63
2023-04-28T14:03:37.489Z,0.77
2023-04-28T14:06:04.379Z,0.80
2023-04-28T14:08:31.189Z,1.45
2023-04-28T14:10:57.684Z,0.95
2023-04-28T14:13:27.374Z,1.00
2023-04-28T14:15:59.605Z,1.90
2023-04-28T14:18:27.377Z,2.00
2023-04-28T14:20:54.470Z,0.82
2023-04-28T14:23:24.579Z,2.15
2023-04-28T14:25:56.044Z,1.42
2023-04-28T14:28:22.888Z,1.10
2023-04-28T14:30:50.120Z,1.20
2023-04-28T14:33:16.732Z,0.75
2023-04-28T14:35:43.456Z,5.00
2023-04-28T14:38:09.951Z,1.02
2023-04-28T14:40:36.529Z,1.50
2023-04-28T14:43:03.040Z,0.70
2023-04-28T14:45:29.701Z,3.05
2023-04-28T14:47:56.215Z,1.58
2023-04-28T14:50:22.721Z,0.40
2023-04-28T14:52:49.533Z,1.23
2023-04-28T14:55:16.076Z,2.15
2023-04-28T14:57:42.695Z,0.40
2023-04-28T15:00:09.727Z,0.52
2023-04-28T15:02:36.702Z,2.05
2023-04-28T15:05:03.745Z,0.10
2023-04-28T15:07:32.990Z,0.82
2023-04-28T15:09:59.860Z,3.00
2023-04-28T15:12:26.933Z,0.68
2023-04-28T15:14:53.617Z,1.58
2023-04-28T15:17:21.092Z,0.10
2023-04-28T15:19:47.654Z,0.15
2023-04-28T15:22:14.200Z,0.73
2023-04-28T15:24:41.172Z,1.17
2023-04-28T15:27:07.824Z,1.27
2023-04-28T15:29:34.365Z,0.77
2023-04-28T15:32:00.911Z,1.92
2023-04-28T15:34:27.557Z,0.85
2023-04-28T15:36:54.043Z,2.25
2023-04-28T15:39:20.609Z,0.38
2023-04-28T15:41:47.674Z,0.70
2023-04-28T15:44:14.347Z,1.27
2023-04-28T15:46:40.856Z,0.85
2023-04-28T15:49:08.597Z,2.35
2023-04-28T15:51:35.098Z,1.23
2023-04-28T15:54:01.605Z,2.33
2023-04-28T15:56:28.446Z,0.75
2023-04-28T15:58:54.931Z,1.63
2023-04-28T16:01:22.488Z,2.03
2023-04-28T16:03:49.099Z,2.35
2023-04-28T16:06:15.955Z,3.60
2023-04-28T16:08:42.711Z,1.33
2023-04-28T16:11:10.852Z,1.23
2023-04-28T16:13:37.530Z,1.75
2023-04-28T16:16:04.464Z,4.43
2023-04-28T16:18:31.116Z,2.95
2023-04-28T16:20:58.134Z,3.45
2023-04-28T16:23:24.667Z,3.33
2023-04-28T16:25:51.601Z,7.88
2023-04-28T16:28:18.103Z,3.30
2023-04-28T16:30:44.610Z,1.23
2023-04-28T16:33:11.180Z,2.75
2023-04-28T16:35:37.748Z,2.63
2023-04-28T16:38:04.258Z,1.65
2023-04-28T16:40:30.940Z,1.73
2023-04-28T16:42:57.480Z,2.33
2023-04-28T16:45:24.080Z,1.58
2023-04-28T16:47:50.613Z,3.05
2023-04-28T16:50:17.758Z,1.73
2023-04-28T16:52:44.714Z,1.35
2023-04-28T16:55:11.346Z,2.13
2023-04-28T16:57:37.870Z,2.95
2023-04-28T17:00:06.127Z,1.65
2023-04-28T17:02:33.348Z,2.85
2023-04-28T17:05:00.287Z,3.28
2023-04-28T17:07:27.580Z,1.65
2023-04-28T17:09:54.332Z,2.50
2023-04-28T17:12:21.091Z,1.35
2023-04-28T17:14:47.825Z,1.60
2023-04-28T17:17:14.255Z,2.38
2023-04-28T17:19:42.045Z,1.95
2023-04-28T17:22:08.819Z,1.25
2023-04-28T17:24:35.550Z,2.10
2023-04-28T17:27:02.036Z,2.10
2023-04-28T17:29:28.467Z,1.45
2023-04-28T17:31:55.090Z,1.77
2023-04-28T17:34:21.712Z,2.50
2023-04-28T17:36:48.170Z,2.58
2023-04-28T17:39:16.309Z,2.05
2023-04-28T17:41:43.559Z,1.77
2023-04-28T17:44:10.158Z,1.45
2023-04-28T17:46:38.471Z,2.40
2023-04-28T17:49:05.305Z,2.38
2023-04-28T17:51:32.391Z,1.20
2023-04-28T17:53:59.252Z,1.27
2023-04-28T17:56:26.341Z,2.05
2023-04-28T17:58:53.014Z,1.65
2023-04-28T18:01:19.617Z,2.85
2023-04-28T18:03:46.415Z,3.33
2023-04-28T18:06:13.787Z,2.30
2023-04-28T18:08:40.865Z,0.85
2023-04-28T18:11:09.915Z,2.15
2023-04-28T18:13:36.445Z,1.52
2023-04-28T18:16:04.843Z,1.63
2023-04-28T18:18:35.354Z,2.67
2023-04-28T18:21:02.399Z,3.03
2023-04-28T18:23:30.352Z,2.50
2023-04-28T18:25:56.984Z,2.70
2023-04-28T18:28:23.566Z,2.42
2023-04-28T18:30:50.175Z,3.78
2023-04-28T18:33:22.324Z,4.35
2023-04-28T18:35:58.504Z,3.47
2023-04-28T18:38:25.016Z,3.50
2023-04-28T18:40:51.931Z,5.10
2023-04-28T18:43:18.361Z,2.90
2023-04-28T18:45:44.955Z,1.90
2023-04-28T18:48:11.531Z,2.05
2023-04-28T18:50:38.333Z,4.60
2023-04-28T18:53:05.278Z,2.60
2023-04-28T18:55:34.575Z,1.67
2023-04-28T18:58:03.964Z,6.75
2023-04-28T19:00:31.029Z,2.65
2023-04-28T19:02:57.730Z,4.55
2023-04-28T19:05:24.562Z,2.97
2023-04-28T19:07:50.951Z,2.70
2023-04-28T19:10:17.704Z,2.78
2023-04-28T19:12:44.158Z,3.72
2023-04-28T19:15:10.812Z,5.68
2023-04-28T19:17:37.312Z,3.50
2023-04-28T19:20:04.106Z,4.35
2023-04-28T19:22:38.168Z,4.35
2023-04-28T19:25:06.678Z,2.85
2023-04-28T19:27:35.772Z,3.58
2023-04-28T19:30:04.040Z,4.22
2023-04-28T19:32:30.757Z,4.85
2023-04-28T19:34:57.391Z,3.47
2023-04-28T19:37:24.023Z,3.38
2023-04-28T19:39:51.125Z,5.97
2023-04-28T19:42:18.302Z,5.00
2023-04-28T19:44:46.546Z,5.20
2023-04-28T19:47:13.186Z,5.03
2023-04-28T19:49:41.398Z,3.53
2023-04-28T19:52:10.097Z,3.83
2023-04-28T19:54:38.786Z,3.22
2023-04-28T19:57:05.389Z,3.17
2023-04-28T19:59:32.025Z,3.80
2023-04-28T20:01:58.736Z,4.40
2023-04-28T20:04:25.898Z,4.75
2023-04-28T20:06:52.480Z,5.85
2023-04-28T20:09:19.010Z,4.90
2023-04-28T20:11:45.624Z,3.10
2023-04-28T20:14:12.262Z,3.83
2023-04-28T20:16:38.746Z,3.58
2023-04-28T20:19:05.189Z,3.42
2023-04-28T20:21:32.807Z,2.78
2023-04-28T20:23:59.259Z,3.50
2023-04-28T20:26:25.780Z,3.00
2023-04-28T20:28:54.028Z,3.38
2023-04-28T20:31:20.617Z,6.82
2023-04-28T20:33:47.126Z,3.72
2023-04-28T20:36:13.739Z,2.15
2023-04-28T20:38:40.308Z,2.55
2023-04-28T20:41:07.804Z,2.58
2023-04-28T20:43:34.365Z,3.50
2023-04-28T20:46:00.880Z,3.80
2023-04-28T20:48:27.654Z,4.13
2023-04-28T20:50:55.165Z,3.75
2023-04-28T20:53:22.102Z,3.45
2023-04-28T20:55:50.092Z,4.30
2023-04-28T20:58:16.908Z,4.03
2023-04-28T21:00:44.064Z,5.05
2023-04-28T21:03:15.728Z,4.10
2023-04-28T21:05:44.457Z,3.30
2023-04-28T21:08:11.370Z,5.60
2023-04-28T21:10:38.468Z,2.95
2023-04-28T21:13:05.026Z,3.90
2023-04-28T21:15:36.868Z,2.08
2023-04-28T21:18:04.262Z,2.20
2023-04-28T21:20:30.742Z,3.92
2023-04-28T21:22:57.208Z,1.98
2023-04-28T21:25:24.133Z,3.60
2023-04-28T21:27:50.797Z,4.05
2023-04-28T21:30:17.468Z,2.60
2023-04-28T21:32:43.910Z,6.10
2023-04-28T21:35:10.864Z,3.20
2023-04-28T21:37:37.477Z,3.33
2023-04-28T21:40:05.097Z,3.55
2023-04-28T21:42:31.999Z,4.35
2023-04-28T21:44:58.718Z,3.17
2023-04-28T21:47:25.548Z,3.55
2023-04-28T21:49:52.151Z,3.28
2023-04-28T21:52:18.698Z,2.50
2023-04-28T21:54:45.077Z,2.70
2023-04-28T21:57:11.500Z,3.28
2023-04-28T21:59:37.885Z,7.60
2023-04-28T22:02:06.138Z,3.58
2023-04-28T22:04:33.730Z,3.50
2023-04-28T22:07:01.036Z,2.80
2023-04-28T22:09:28.863Z,3.80
2023-04-28T22:11:55.289Z,3.42
2023-04-28T22:14:39.375Z,2.80
2023-04-28T22:17:07.462Z,3.63
2023-04-28T22:19:34.022Z,2.80
2023-04-28T22:22:00.611Z,3.60
2023-04-28T22:24:27.654Z,2.67
2023-04-28T22:26:54.759Z,3.55
2023-04-28T22:29:21.519Z,2.22
2023-04-28T22:31:48.163Z,2.97
2023-04-28T22:34:14.668Z,3.90
2023-04-28T22:36:42.659Z,3.25
2023-04-28T22:39:09.071Z,3.67
2023-04-28T22:41:35.513Z,3.85
2023-04-28T22:44:01.957Z,5.72
2023-04-28T22:46:28.750Z,2.75
2023-04-28T22:48:55.468Z,5.55
2023-04-28T22:51:22.242Z,4.50
2023-04-28T22:53:48.703Z,5.30
2023-04-28T22:56:15.659Z,8.93
2023-04-28T22:58:42.278Z,4.70
2023-04-28T23:01:09.130Z,5.45
2023-04-28T23:03:35.961Z,4.72
2023-04-28T23:06:02.618Z,7.00
2023-04-28T23:08:29.131Z,4.25
2023-04-28T23:10:58.440Z,5.60
2023-04-28T23:13:25.084Z,4.82
2023-04-28T23:15:51.724Z,5.28
2023-04-28T23:18:18.292Z,5.70
2023-04-28T23:20:48.614Z,6.28
2023-04-28T23:23:15.089Z,5.00
2023-04-28T23:25:42.864Z,8.75
2023-04-28T23:28:12.347Z,6.28
2023-04-28T23:30:38.859Z,8.98
2023-04-28T23:33:05.396Z,4.57
2023-04-28T23:35:33.158Z,7.38
2023-04-28T23:37:59.725Z,3.97
2023-04-28T23:40:26.814Z,6.13
2023-04-28T23:42:53.431Z,8.80
2023-04-28T23:45:19.950Z,4.85
2023-04-28T23:47:47.210Z,4.70
2023-04-28T23:50:13.765Z,4.07
2023-04-28T23:52:40.415Z,5.72
2023-04-28T23:55:10.755Z,8.40
2023-04-28T23:57:38.395Z,5.82
